Terminal Aerodrome Forecast
Issued by NWS

Home | Current Version | Previous Version | Text Only | Print | Product List | Glossary On
Versions: 1 2 3 4 5 6 7 8 9 10 11 12 13
682
FTUS45 KABQ 282320
TAFFMN
TAF
KFMN 282320Z 2900/2924 26015G25KT P6SM SKC
     FM290200 26008KT P6SM SKC
     FM290800 07006KT P6SM SKC
     FM291500 12006KT P6SM SKC
     FM291800 27015G22KT P6SM SKC
     FM292100 29015G25KT P6SM SKC=

USA.gov is the U.S. government's official web portal to all federal, state and local government web resources and services.